Time,TemperatureF,DewpointF,PressureIn,WindDirection,WindDirectionDegrees,WindSpeedMPH,WindSpeedGustMPH,Humidity,HourlyPrecipIn,Conditions,Clouds,dailyrainin,SoftwareType,DateUTC
2013-03-14 00:00:00,32.9,20.9,29.84,WNW,287,0.0,6.9,61,0.00,CLR,,0.02,WeatherDisplay:10.37,2013-03-14 04:00:00,
2013-03-14 00:01:00,32.8,21.2,29.84,WNW,282,2.6,5.0,62,0.00,RA,,0.00,WeatherDisplay:10.37,2013-03-14 04:01:00,
2013-03-14 00:07:00,32.7,21.5,29.84,West,275,2.7,9.2,63,0.00,RA,,0.00,WeatherDisplay:10.37,2013-03-14 04:07:00,
2013-03-14 00:12:00,32.5,20.9,29.84,NW,309,1.4,5.8,62,0.00,CLR,,0.00,WeatherDisplay:10.37,2013-03-14 04:12:00,
2013-03-14 00:17:00,32.4,20.4,29.84,WNW,299,3.8,12.7,61,0.00,CLR,,0.00,WeatherDisplay:10.37,2013-03-14 04:17:00,
2013-03-14 00:22:00,32.2,19.5,29.83,WNW,294,9.0,13.8,59,0.00,CLR,,0.00,WeatherDisplay:10.37,2013-03-14 04:22:00,
2013-03-14 00:27:00,32.2,18.2,29.83,WNW,291,8.7,12.7,56,0.00,CLR,,0.00,WeatherDisplay:10.37,2013-03-14 04:27:00,
2013-03-14 00:32:00,32.1,18.2,29.84,WNW,289,6.7,17.3,56,0.00,CLR,,0.00,WeatherDisplay:10.37,2013-03-14 04:32:00,
2013-03-14 00:38:00,31.8,17.9,29.84,WNW,296,1.5,5.8,56,0.00,CLR,,0.00,WeatherDisplay:10.37,2013-03-14 04:38:00,
2013-03-14 00:43:00,31.6,17.7,29.84,WNW,294,3.9,8.1,56,0.00,CLR,,0.00,WeatherDisplay:10.37,2013-03-14 04:43:00,
2013-03-14 00:48:00,31.5,17.2,29.84,WNW,285,10.9,13.8,55,0.00,CLR,,0.00,WeatherDisplay:10.37,2013-03-14 04:48:00,
2013-03-14 00:53:00,31.3,17.4,29.84,WNW,291,3.3,8.0,56,0.00,CLR,,0.00,WeatherDisplay:10.37,2013-03-14 04:53:00,
2013-03-14 00:58:00,31.2,17.3,29.84,NW,323,4.5,11.5,56,0.00,CLR,,0.00,WeatherDisplay:10.37,2013-03-14 04:58:00,
2013-03-14 01:04:00,31.0,16.7,29.84,NW,312,7.4,18.4,55,0.00,CLR,,0.00,WeatherDisplay:10.37,2013-03-14 05:04:00,
2013-03-14 01:09:00,31.0,16.7,29.84,NNW,330,6.4,11.5,55,0.00,CLR,,0.00,WeatherDisplay:10.37,2013-03-14 05:09:00,
2013-03-14 01:14:00,31.0,16.7,29.84,West,263,6.1,11.5,55,0.00,CLR,,0.00,WeatherDisplay:10.37,2013-03-14 05:14:00,
2013-03-14 01:19:00,30.9,17.0,29.84,WNW,296,6.9,12.7,56,0.00,CLR,,0.00,WeatherDisplay:10.37,2013-03-14 05:19:00,
2013-03-14 01:24:00,31.0,16.7,29.84,SW,233,1.4,11.5,55,0.00,CLR,,0.00,WeatherDisplay:10.37,2013-03-14 05:24:00,
2013-03-14 01:29:00,31.0,16.7,29.84,NW,315,4.4,11.5,55,0.00,CLR,,0.00,WeatherDisplay:10.37,2013-03-14 05:29:00,
2013-03-14 01:34:00,31.0,16.7,29.84,NW,315,6.0,10.4,55,0.00,CLR,,0.00,WeatherDisplay:10.37,2013-03-14 05:34:00,
2013-03-14 01:40:00,31.0,16.7,29.84,WNW,294,7.3,12.7,55,0.00,CLR,,0.00,WeatherDisplay:10.37,2013-03-14 05:40:00,
2013-03-14 01:45:00,31.0,17.1,29.84,WNW,292,3.6,6.9,56,0.00,CLR,,0.00,WeatherDisplay:10.37,2013-03-14 05:45:00,
2013-03-14 01:50:00,31.0,17.1,29.84,WNW,287,2.6,6.9,56,0.00,CLR,,0.00,WeatherDisplay:10.37,2013-03-14 05:50:00,
2013-03-14 01:55:00,31.0,16.7,29.84,West,270,8.1,11.5,55,0.00,CLR,,0.00,WeatherDisplay:10.37,2013-03-14 05:55:00,
2013-03-14 02:00:00,31.0,16.7,29.84,West,272,5.7,12.7,55,0.00,CLR,,0.00,WeatherDisplay:10.37,2013-03-14 06:00:00,
2013-03-14 02:05:00,31.0,16.3,29.84,West,268,6.0,11.5,54,0.00,CLR,,0.00,WeatherDisplay:10.37,2013-03-14 06:05:00,
2013-03-14 02:10:00,31.0,16.3,29.84,WNW,288,2.0,11.5,54,0.00,CLR,,0.00,WeatherDisplay:10.37,2013-03-14 06:10:00,
2013-03-14 02:15:00,30.9,16.2,29.84,West,272,5.9,11.5,54,0.00,CLR,,0.00,WeatherDisplay:10.37,2013-03-14 06:15:00,
2013-03-14 02:20:00,30.9,16.2,29.84,NNW,328,5.4,11.0,54,0.00,CLR,,0.00,WeatherDisplay:10.37,2013-03-14 06:20:00,
2013-03-14 02:25:00,30.9,16.6,29.84,WNW,302,5.1,11.5,55,0.00,CLR,,0.00,WeatherDisplay:10.37,2013-03-14 06:25:00,
2013-03-14 02:30:00,30.9,16.2,29.84,WNW,289,8.4,12.7,54,0.00,CLR,,0.00,WeatherDisplay:10.37,2013-03-14 06:30:00,
2013-03-14 02:35:00,30.9,16.6,29.84,WNW,291,8.7,17.3,55,0.00,CLR,,0.00,WeatherDisplay:10.37,2013-03-14 06:35:00,
2013-03-14 02:40:00,30.9,16.6,29.85,WNW,301,8.6,12.7,55,0.00,CLR,,0.00,WeatherDisplay:10.37,2013-03-14 06:40:00,
2013-03-14 02:45:00,30.7,16.4,29.85,West,275,6.7,11.5,55,0.00,CLR,,0.00,WeatherDisplay:10.37,2013-03-14 06:45:00,
2013-03-14 02:50:00,30.4,17.4,29.85,WNW,287,9.2,16.1,58,0.00,CLR,,0.00,WeatherDisplay:10.37,2013-03-14 06:50:00,
2013-03-14 02:55:00,30.3,17.3,29.85,West,275,8.6,13.8,58,0.00,CLR,,0.00,WeatherDisplay:10.37,2013-03-14 06:55:00,
2013-03-14 03:00:00,30.0,15.8,29.85,WNW,299,10.2,13.8,55,0.00,CLR,,0.00,WeatherDisplay:10.37,2013-03-14 07:00:00,
2013-03-14 03:05:00,29.8,15.6,29.85,WNW,294,4.0,10.4,55,0.00,CLR,,0.00,WeatherDisplay:10.37,2013-03-14 07:05:00,
2013-03-14 03:10:00,29.7,13.8,29.85,NW,315,9.9,11.5,51,0.00,CLR,,0.00,WeatherDisplay:10.37,2013-03-14 07:10:00,
2013-03-14 03:15:00,29.5,14.0,29.85,NW,312,7.5,11.5,52,0.00,CLR,,0.00,WeatherDisplay:10.37,2013-03-14 07:15:00,
2013-03-14 03:20:00,29.4,14.4,29.85,NNW,347,4.3,8.1,53,0.00,CLR,,0.00,WeatherDisplay:10.37,2013-03-14 07:20:00,
2013-03-14 03:25:00,29.1,13.2,29.85,WNW,292,6.8,12.7,51,0.00,CLR,,0.00,WeatherDisplay:10.37,2013-03-14 07:25:00,
2013-03-14 03:38:00,29.0,13.1,29.85,WNW,289,0.0,12.7,51,0.00,CLR,,0.00,WeatherDisplay:10.37,2013-03-14 07:38:00,
2013-03-14 03:43:00,28.8,12.9,29.85,WNW,301,6.3,11.0,51,0.00,CLR,,0.00,WeatherDisplay:10.37,2013-03-14 07:43:00,
2013-03-14 03:48:00,28.7,13.7,29.85,WNW,301,3.5,7.0,53,0.00,CLR,,0.00,WeatherDisplay:10.37,2013-03-14 07:48:00,
2013-03-14 03:54:00,28.5,12.6,29.85,NW,305,7.8,11.5,51,0.00,CLR,,0.00,WeatherDisplay:10.37,2013-03-14 07:54:00,
2013-03-14 03:59:00,28.5,12.2,29.84,WNW,287,7.0,13.8,50,0.00,CLR,,0.00,WeatherDisplay:10.37,2013-03-14 07:59:00,
2013-03-14 04:04:00,28.5,12.2,29.85,WNW,285,6.5,10.4,50,0.00,CLR,,0.00,WeatherDisplay:10.37,2013-03-14 08:04:00,
2013-03-14 04:09:00,28.5,12.2,29.85,WNW,285,6.5,10.4,50,0.00,CLR,,0.00,WeatherDisplay:10.37,2013-03-14 08:09:00,
2013-03-14 04:14:00,28.5,11.7,29.85,North,353,5.6,9.2,49,0.00,CLR,,0.00,WeatherDisplay:10.37,2013-03-14 08:14:00,
2013-03-14 04:19:00,28.4,11.2,29.85,NW,309,4.8,11.5,48,0.00,CLR,,0.00,WeatherDisplay:10.37,2013-03-14 08:19:00,
2013-03-14 04:24:00,28.4,11.2,29.85,WNW,289,3.6,8.1,48,0.00,CLR,,0.00,WeatherDisplay:10.37,2013-03-14 08:24:00,
2013-03-14 04:29:00,28.4,11.2,29.84,NNW,335,0.2,0.0,48,0.00,CLR,,0.00,WeatherDisplay:10.37,2013-03-14 08:29:00,
2013-03-14 04:34:00,28.4,11.6,29.84,North,352,6.3,11.5,49,0.00,CLR,,0.00,WeatherDisplay:10.37,2013-03-14 08:34:00,
2013-03-14 04:39:00,28.2,12.4,29.84,NNW,328,3.5,7.0,51,0.00,CLR,,0.00,WeatherDisplay:10.37,2013-03-14 08:39:00,
2013-03-14 04:44:00,28.1,11.8,29.84,WNW,298,4.6,12.7,50,0.00,CLR,,0.00,WeatherDisplay:10.37,2013-03-14 08:44:00,
2013-03-14 04:49:00,28.1,12.3,29.84,WNW,284,6.3,11.5,51,0.00,CLR,,0.00,WeatherDisplay:10.37,2013-03-14 08:49:00,
2013-03-14 04:54:00,28.1,12.3,29.84,WNW,289,9.1,11.5,51,0.00,CLR,,0.00,WeatherDisplay:10.37,2013-03-14 08:54:00,
2013-03-14 04:59:00,28.1,12.3,29.84,NNW,342,8.5,11.5,51,0.00,CLR,,0.00,WeatherDisplay:10.37,2013-03-14 08:59:00,
2013-03-14 05:04:00,27.8,12.9,29.84,WNW,287,5.6,11.5,53,0.00,CLR,,0.00,WeatherDisplay:10.37,2013-03-14 09:04:00,
2013-03-14 05:10:00,27.8,12.9,29.85,NW,304,6.5,9.2,53,0.00,CLR,,0.00,WeatherDisplay:10.37,2013-03-14 09:10:00,
2013-03-14 05:15:00,27.8,13.3,29.84,NW,320,6.2,8.1,54,0.00,CLR,,0.00,WeatherDisplay:10.37,2013-03-14 09:15:00,
2013-03-14 05:20:00,27.8,12.9,29.84,WNW,292,7.8,11.5,53,0.00,CLR,,0.00,WeatherDisplay:10.37,2013-03-14 09:20:00,
2013-03-14 05:25:00,27.8,13.3,29.85,West,270,7.2,11.5,54,0.00,CLR,,0.00,WeatherDisplay:10.37,2013-03-14 09:25:00,
2013-03-14 05:30:00,27.9,13.4,29.85,SW,226,5.4,6.9,54,0.00,CLR,,0.00,WeatherDisplay:10.37,2013-03-14 09:30:00,
2013-03-14 05:35:00,27.8,13.3,29.85,NW,311,7.7,13.8,54,0.00,CLR,,0.00,WeatherDisplay:10.37,2013-03-14 09:35:00,
2013-03-14 05:41:00,27.8,13.3,29.85,West,274,5.2,10.4,54,0.00,CLR,,0.00,WeatherDisplay:10.37,2013-03-14 09:41:00,
2013-03-14 05:46:00,27.8,13.3,29.85,NW,308,6.5,11.5,54,0.00,CLR,,0.00,WeatherDisplay:10.37,2013-03-14 09:46:00,
2013-03-14 05:51:00,27.8,13.7,29.85,West,275,10.1,17.3,55,0.00,CLR,,0.00,WeatherDisplay:10.37,2013-03-14 09:51:00,
2013-03-14 05:56:00,27.8,13.7,29.85,NW,306,3.1,10.4,55,0.00,CLR,,0.00,WeatherDisplay:10.37,2013-03-14 09:56:00,
2013-03-14 06:01:00,27.8,13.7,29.86,WNW,282,5.0,5.8,55,0.00,CLR,,0.00,WeatherDisplay:10.37,2013-03-14 10:01:00,
2013-03-14 06:06:00,27.8,13.3,29.85,NNW,339,13.1,19.6,54,0.00,CLR,,0.00,WeatherDisplay:10.37,2013-03-14 10:06:00,
2013-03-14 06:11:00,27.9,13.8,29.86,North,0,7.4,11.5,55,0.00,CLR,,0.00,WeatherDisplay:10.37,2013-03-14 10:11:00,
2013-03-14 06:16:00,27.8,13.7,29.86,WNW,296,10.5,21.9,55,0.00,CLR,,0.00,WeatherDisplay:10.37,2013-03-14 10:16:00,
2013-03-14 06:22:00,27.8,14.1,29.86,WNW,282,8.4,13.8,56,0.00,CLR,,0.00,WeatherDisplay:10.37,2013-03-14 10:22:00,
2013-03-14 06:27:00,27.8,14.5,29.85,NW,306,8.3,11.5,57,0.00,CLR,,0.00,WeatherDisplay:10.37,2013-03-14 10:27:00,
2013-03-14 06:32:00,27.8,14.5,29.86,WNW,299,8.6,18.0,57,0.00,CLR,,0.00,WeatherDisplay:10.37,2013-03-14 10:32:00,
2013-03-14 06:37:00,27.8,14.5,29.85,NW,304,5.9,12.7,57,0.00,CLR,,0.00,WeatherDisplay:10.37,2013-03-14 10:37:00,
2013-03-14 06:43:00,27.6,14.7,29.86,NW,319,8.4,13.8,58,0.00,CLR,,0.00,WeatherDisplay:10.37,2013-03-14 10:43:00,
2013-03-14 06:48:00,27.6,14.3,29.86,West,272,11.4,21.9,57,0.00,CLR,,0.00,WeatherDisplay:10.37,2013-03-14 10:48:00,
2013-03-14 06:54:00,27.6,15.1,29.86,West,265,0.0,0.0,59,0.00,CLR,,0.00,WeatherDisplay:10.37,2013-03-14 10:54:00,
2013-03-14 06:59:00,27.6,14.7,29.86,WNW,292,9.2,19.6,58,0.00,CLR,,0.00,WeatherDisplay:10.37,2013-03-14 10:59:00,
2013-03-14 07:04:00,27.6,14.7,29.86,WNW,294,4.6,10.4,58,0.00,CLR,,0.00,WeatherDisplay:10.37,2013-03-14 11:04:00,
2013-03-14 07:09:00,27.6,15.1,29.86,NW,323,3.5,8.1,59,0.00,CLR,,0.00,WeatherDisplay:10.37,2013-03-14 11:09:00,
2013-03-14 07:14:00,27.5,13.8,29.86,NNW,335,8.5,11.5,56,0.00,CLR,,0.00,WeatherDisplay:10.37,2013-03-14 11:14:00,
2013-03-14 07:19:00,27.3,13.7,29.86,WNW,282,11.9,17.3,56,0.00,CLR,,0.00,WeatherDisplay:10.37,2013-03-14 11:19:00,
2013-03-14 07:24:00,27.3,13.2,29.87,NW,318,10.3,16.1,55,0.00,CLR,,0.00,WeatherDisplay:10.37,2013-03-14 11:24:00,
2013-03-14 07:29:00,27.2,12.3,29.87,North,0,6.1,18.4,53,0.00,CLR,,0.00,WeatherDisplay:10.37,2013-03-14 11:29:00,
2013-03-14 07:35:00,27.2,11.9,29.88,WNW,299,11.4,16.1,52,0.00,CLR,,0.00,WeatherDisplay:10.37,2013-03-14 11:35:00,
2013-03-14 07:40:00,27.2,12.3,29.88,NNW,329,6.1,11.5,53,0.00,CLR,,0.00,WeatherDisplay:10.37,2013-03-14 11:40:00,
2013-03-14 07:45:00,27.0,11.7,29.88,West,277,6.8,11.5,52,0.00,CLR,,0.00,WeatherDisplay:10.37,2013-03-14 11:45:00,
2013-03-14 07:50:00,26.9,10.7,29.88,NW,316,16.9,21.9,50,0.00,CLR,,0.00,WeatherDisplay:10.37,2013-03-14 11:50:00,
2013-03-14 07:55:00,26.9,11.2,29.89,NW,306,7.3,20.7,51,0.00,CLR,,0.00,WeatherDisplay:10.37,2013-03-14 11:55:00,
2013-03-14 08:01:00,26.7,11.0,29.89,NNW,337,6.7,18.4,51,0.00,CLR,,0.00,WeatherDisplay:10.37,2013-03-14 12:01:00,
2013-03-14 08:06:00,26.7,11.4,29.90,WNW,294,5.9,8.1,52,0.00,CLR,,0.00,WeatherDisplay:10.37,2013-03-14 12:06:00,
2013-03-14 08:11:00,26.7,11.8,29.90,NW,304,5.1,7.0,53,0.00,CLR,,0.00,WeatherDisplay:10.37,2013-03-14 12:11:00,
2013-03-14 08:16:00,26.6,12.2,29.90,NW,326,8.6,12.7,54,0.00,CLR,,0.00,WeatherDisplay:10.37,2013-03-14 12:16:00,
2013-03-14 08:21:00,26.6,12.2,29.90,North,353,10.1,11.5,54,0.00,CLR,,0.00,WeatherDisplay:10.37,2013-03-14 12:21:00,
2013-03-14 08:26:00,26.6,12.2,29.90,NW,311,10.6,12.7,54,0.00,CLR,,0.00,WeatherDisplay:10.37,2013-03-14 12:26:00,
2013-03-14 08:32:00,26.4,11.6,29.90,NW,315,6.9,12.7,53,0.00,CLR,,0.00,WeatherDisplay:10.37,2013-03-14 12:32:00,
2013-03-14 08:37:00,26.4,12.0,29.90,North,349,8.8,12.7,54,0.00,CLR,,0.00,WeatherDisplay:10.37,2013-03-14 12:37:00,
2013-03-14 08:42:00,26.4,11.6,29.90,NNW,328,10.8,16.1,53,0.00,CLR,,0.00,WeatherDisplay:10.37,2013-03-14 12:42:00,
2013-03-14 08:47:00,26.6,11.7,29.90,NW,306,6.7,8.1,53,0.00,CLR,,0.00,WeatherDisplay:10.37,2013-03-14 12:47:00,
2013-03-14 08:52:00,26.6,10.4,29.91,NNW,346,9.4,21.9,50,0.00,CLR,,0.00,WeatherDisplay:10.37,2013-03-14 12:52:00,
2013-03-14 08:57:00,26.6,11.3,29.91,NW,318,7.4,21.9,52,0.00,CLR,,0.00,WeatherDisplay:10.37,2013-03-14 12:57:00,
2013-03-14 09:03:00,26.7,11.0,29.90,NW,319,9.9,15.0,51,0.00,CLR,,0.00,WeatherDisplay:10.37,2013-03-14 13:03:00,
2013-03-14 09:08:00,26.9,11.6,29.91,NW,306,7.3,13.8,52,0.00,CLR,,0.00,WeatherDisplay:10.37,2013-03-14 13:08:00,
2013-03-14 09:13:00,27.0,11.3,29.90,WNW,284,5.7,9.2,51,0.00,CLR,,0.00,WeatherDisplay:10.37,2013-03-14 13:13:00,
2013-03-14 09:18:00,27.2,11.0,29.91,WNW,302,7.4,11.5,50,0.00,CLR,,0.00,WeatherDisplay:10.37,2013-03-14 13:18:00,
2013-03-14 09:23:00,27.2,11.0,29.91,WNW,289,7.2,11.5,50,0.00,CLR,,0.00,WeatherDisplay:10.37,2013-03-14 13:23:00,
2013-03-14 09:28:00,27.2,11.4,29.91,NNW,347,6.5,11.5,51,0.00,CLR,,0.00,WeatherDisplay:10.37,2013-03-14 13:28:00,
2013-03-14 09:33:00,27.2,11.0,29.91,North,0,8.1,17.3,50,0.00,CLR,,0.00,WeatherDisplay:10.37,2013-03-14 13:33:00,
2013-03-14 09:38:00,26.9,10.7,29.90,WNW,287,11.3,20.7,50,0.00,CLR,,0.00,WeatherDisplay:10.37,2013-03-14 13:38:00,
2013-03-14 09:43:00,26.9,11.2,29.91,WSW,240,6.9,14.0,51,0.00,CLR,,0.00,WeatherDisplay:10.37,2013-03-14 13:43:00,
2013-03-14 09:49:00,26.9,11.6,29.91,West,278,8.2,13.8,52,0.00,CLR,,0.00,WeatherDisplay:10.37,2013-03-14 13:49:00,
2013-03-14 09:54:00,27.0,11.7,29.91,WNW,287,3.7,6.9,52,0.00,CLR,,0.00,WeatherDisplay:10.37,2013-03-14 13:54:00,
2013-03-14 09:59:00,27.2,12.3,29.91,WNW,302,7.2,12.7,53,0.00,CLR,,0.00,WeatherDisplay:10.37,2013-03-14 13:59:00,
2013-03-14 10:04:00,27.2,12.7,29.91,WNW,289,2.5,10.4,54,0.00,CLR,,0.00,WeatherDisplay:10.37,2013-03-14 14:04:00,
2013-03-14 10:10:00,27.3,12.8,29.91,West,274,7.3,11.5,54,0.00,CLR,,0.00,WeatherDisplay:10.37,2013-03-14 14:10:00,
2013-03-14 10:15:00,27.3,12.8,29.91,NW,308,3.7,11.5,54,0.00,CLR,,0.00,WeatherDisplay:10.37,2013-03-14 14:15:00,
2013-03-14 10:20:00,27.3,13.2,29.91,NNW,328,5.7,11.5,55,0.00,CLR,,0.00,WeatherDisplay:10.37,2013-03-14 14:20:00,
2013-03-14 10:25:00,27.3,13.7,29.91,West,277,9.8,19.6,56,0.00,CLR,,0.00,WeatherDisplay:10.37,2013-03-14 14:25:00,
2013-03-14 10:30:00,27.3,14.1,29.91,NW,306,7.6,13.8,57,0.00,CLR,,0.00,WeatherDisplay:10.37,2013-03-14 14:30:00,
2013-03-14 10:36:00,27.2,14.0,29.91,WNW,299,5.8,10.4,57,0.00,CLR,,0.00,WeatherDisplay:10.37,2013-03-14 14:36:00,
2013-03-14 10:41:00,27.5,13.4,29.90,WNW,295,6.8,10.4,55,0.00,CLR,,0.00,WeatherDisplay:10.37,2013-03-14 14:41:00,
2013-03-14 10:46:00,27.6,13.9,29.91,West,281,5.6,8.1,56,0.00,CLR,,0.00,WeatherDisplay:10.37,2013-03-14 14:46:00,
2013-03-14 10:51:00,27.8,13.7,29.91,WSW,258,5.5,11.5,55,0.00,CLR,,0.00,WeatherDisplay:10.37,2013-03-14 14:51:00,
2013-03-14 10:56:00,27.9,13.4,29.91,West,271,7.7,11.5,54,0.00,CLR,,0.00,WeatherDisplay:10.37,2013-03-14 14:56:00,
2013-03-14 11:01:00,27.9,13.8,29.91,North,350,4.6,11.5,55,0.00,CLR,,0.00,WeatherDisplay:10.37,2013-03-14 15:01:00,
2013-03-14 11:07:00,28.1,13.6,29.90,WNW,301,3.8,5.8,54,0.00,CLR,,0.00,WeatherDisplay:10.37,2013-03-14 15:07:00,
2013-03-14 11:12:00,27.9,13.0,29.90,North,349,8.9,19.6,53,0.00,CLR,,0.00,WeatherDisplay:10.37,2013-03-14 15:12:00,
2013-03-14 11:17:00,27.9,13.4,29.90,NW,309,10.6,16.1,54,0.00,CLR,,0.00,WeatherDisplay:10.37,2013-03-14 15:17:00,
2013-03-14 11:22:00,27.9,12.5,29.90,WNW,299,11.5,24.2,52,0.00,CLR,,0.00,WeatherDisplay:10.37,2013-03-14 15:22:00,
2013-03-14 11:27:00,28.4,13.0,29.90,West,278,8.0,18.4,52,0.00,CLR,,0.00,WeatherDisplay:10.37,2013-03-14 15:27:00,
2013-03-14 11:32:00,28.5,12.2,29.90,WNW,299,10.3,13.8,50,0.00,CLR,,0.00,WeatherDisplay:10.37,2013-03-14 15:32:00,
2013-03-14 11:37:00,28.5,13.5,29.89,NNW,337,9.7,19.6,53,0.00,CLR,,0.00,WeatherDisplay:10.37,2013-03-14 15:37:00,
2013-03-14 11:42:00,28.7,12.8,29.89,WNW,296,4.2,8.1,51,0.00,CLR,,0.00,WeatherDisplay:10.37,2013-03-14 15:42:00,
2013-03-14 11:47:00,29.0,12.2,29.89,WNW,294,9.9,17.3,49,0.00,CLR,,0.00,WeatherDisplay:10.37,2013-03-14 15:47:00,
2013-03-14 11:52:00,29.4,13.0,29.89,NW,312,6.1,11.5,50,0.00,CLR,,0.00,WeatherDisplay:10.37,2013-03-14 15:52:00,
2013-03-14 11:57:00,29.5,13.1,29.88,NNW,335,3.0,10.4,50,0.00,CLR,,0.00,WeatherDisplay:10.37,2013-03-14 15:57:00,
2013-03-14 12:02:00,29.8,12.9,29.88,NW,306,1.6,4.6,49,0.00,CLR,,0.00,WeatherDisplay:10.37,2013-03-14 16:02:00,
2013-03-14 12:08:00,30.1,12.7,29.88,NW,320,5.5,8.1,48,0.00,CLR,,0.00,WeatherDisplay:10.37,2013-03-14 16:08:00,
2013-03-14 12:13:00,30.1,13.2,29.88,NNW,344,3.0,7.0,49,0.00,CLR,,0.00,WeatherDisplay:10.37,2013-03-14 16:13:00,
2013-03-14 12:18:00,30.3,12.0,29.88,North,353,9.6,13.8,46,0.00,CLR,,0.00,WeatherDisplay:10.37,2013-03-14 16:18:00,
2013-03-14 12:23:00,30.3,12.5,29.88,NW,308,8.3,16.1,47,0.00,CLR,,0.00,WeatherDisplay:10.37,2013-03-14 16:23:00,
2013-03-14 12:28:00,30.4,12.1,29.87,WNW,298,10.8,17.3,46,0.00,CLR,,0.00,WeatherDisplay:10.37,2013-03-14 16:28:00,
2013-03-14 12:33:00,30.6,12.7,29.87,NW,304,10.2,16.1,47,0.00,CLR,,0.00,WeatherDisplay:10.37,2013-03-14 16:33:00,
2013-03-14 12:38:00,30.7,12.3,29.87,NNW,340,12.4,19.6,46,0.00,CLR,,0.00,WeatherDisplay:10.37,2013-03-14 16:38:00,
2013-03-14 12:44:00,31.2,12.8,29.87,WNW,284,6.1,16.0,46,0.00,CLR,,0.00,WeatherDisplay:10.37,2013-03-14 16:44:00,
2013-03-14 12:49:00,31.8,12.3,29.87,WNW,289,11.1,17.3,44,0.00,CLR,,0.00,WeatherDisplay:10.37,2013-03-14 16:49:00,
2013-03-14 12:54:00,32.1,12.6,29.87,NNW,335,8.3,12.7,44,0.00,CLR,,0.00,WeatherDisplay:10.37,2013-03-14 16:54:00,
2013-03-14 12:59:00,32.5,14.0,29.86,North,1,4.8,10.4,46,0.00,CLR,,0.00,WeatherDisplay:10.37,2013-03-14 16:59:00,
2013-03-14 13:04:00,33.2,15.6,29.86,West,275,8.1,10.4,48,0.00,CLR,,0.00,WeatherDisplay:10.37,2013-03-14 17:04:00,
2013-03-14 13:10:00,33.4,14.8,29.86,North,356,1.1,8.1,46,0.00,CLR,,0.00,WeatherDisplay:10.37,2013-03-14 17:10:00,
2013-03-14 13:15:00,34.3,16.1,29.86,NNW,347,2.2,6.0,47,0.00,CLR,,0.00,WeatherDisplay:10.37,2013-03-14 17:15:00,
2013-03-14 13:20:00,34.1,13.4,29.85,WNW,292,8.1,19.6,42,0.00,CLR,,0.00,WeatherDisplay:10.37,2013-03-14 17:20:00,
2013-03-14 13:26:00,33.5,11.7,29.85,WNW,292,12.2,18.4,40,0.00,CLR,,0.00,WeatherDisplay:10.37,2013-03-14 17:26:00,
2013-03-14 13:31:00,33.8,13.1,29.85,North,349,9.0,9.2,42,0.00,CLR,,0.00,WeatherDisplay:10.37,2013-03-14 17:31:00,
2013-03-14 13:36:00,34.1,12.8,29.85,West,277,2.7,9.2,41,0.00,CLR,,0.00,WeatherDisplay:10.37,2013-03-14 17:36:00,
2013-03-14 13:41:00,34.9,12.4,29.84,WNW,295,8.4,13.8,39,0.00,CLR,,0.00,WeatherDisplay:10.37,2013-03-14 17:41:00,
2013-03-14 13:46:00,35.2,14.9,29.84,NNW,343,4.4,11.5,43,0.00,CLR,,0.00,WeatherDisplay:10.37,2013-03-14 17:46:00,
2013-03-14 13:52:00,35.2,11.5,29.83,WNW,284,9.6,17.3,37,0.00,CLR,,0.00,WeatherDisplay:10.37,2013-03-14 17:52:00,
2013-03-14 13:57:00,35.9,10.9,29.83,North,356,11.2,18.4,35,0.00,CLR,,0.00,WeatherDisplay:10.37,2013-03-14 17:57:00,
2013-03-14 14:02:00,36.3,12.5,29.83,WNW,298,0.4,6.9,37,0.00,CLR,,0.00,WeatherDisplay:10.37,2013-03-14 18:02:00,
2013-03-14 14:07:00,36.3,9.2,29.83,NNW,339,6.8,16.1,32,0.00,CLR,,0.00,WeatherDisplay:10.37,2013-03-14 18:07:00,
2013-03-14 14:12:00,36.8,10.3,29.82,WSW,257,5.9,10.4,33,0.00,CLR,,0.00,WeatherDisplay:10.37,2013-03-14 18:12:00,
2013-03-14 14:18:00,36.5,9.4,29.82,NW,306,8.7,21.9,32,0.00,CLR,,0.00,WeatherDisplay:10.37,2013-03-14 18:18:00,
2013-03-14 14:23:00,36.2,8.4,29.82,West,260,6.6,18.4,31,0.00,CLR,,0.00,WeatherDisplay:10.37,2013-03-14 18:23:00,
2013-03-14 14:28:00,35.9,8.2,29.82,WNW,282,7.5,21.9,31,0.00,CLR,,0.00,WeatherDisplay:10.37,2013-03-14 18:28:00,
2013-03-14 14:33:00,35.9,6.7,29.82,NW,323,13.9,25.3,29,0.00,CLR,,0.00,WeatherDisplay:10.37,2013-03-14 18:33:00,
2013-03-14 14:38:00,35.9,6.7,29.82,NW,315,16.6,26.5,29,0.00,CLR,,0.00,WeatherDisplay:10.37,2013-03-14 18:38:00,
2013-03-14 14:43:00,36.5,8.0,29.81,WNW,295,10.7,19.6,30,0.00,CLR,,0.00,WeatherDisplay:10.37,2013-03-14 18:43:00,
2013-03-14 14:49:00,37.2,7.8,29.82,NW,319,12.7,16.1,29,0.00,CLR,,0.00,WeatherDisplay:10.37,2013-03-14 18:49:00,
2013-03-14 14:54:00,37.0,6.9,29.81,NNW,330,6.0,12.7,28,0.00,CLR,,0.00,WeatherDisplay:10.37,2013-03-14 18:54:00,
2013-03-14 14:59:00,37.3,7.1,29.81,NE,42,13.5,17.3,28,0.00,CLR,,0.00,WeatherDisplay:10.37,2013-03-14 18:59:00,
2013-03-14 15:04:00,37.2,7.8,29.81,West,280,8.2,20.7,29,0.00,CLR,,0.00,WeatherDisplay:10.37,2013-03-14 19:04:00,
2013-03-14 15:09:00,37.9,10.6,29.81,WNW,296,4.3,12.0,32,0.00,CLR,,0.00,WeatherDisplay:10.37,2013-03-14 19:09:00,
2013-03-14 15:14:00,38.2,9.4,29.81,WSW,257,6.0,10.4,30,0.00,CLR,,0.00,WeatherDisplay:10.37,2013-03-14 19:14:00,
2013-03-14 15:19:00,38.2,10.2,29.81,WNW,299,7.7,11.5,31,0.00,CLR,,0.00,WeatherDisplay:10.37,2013-03-14 19:19:00,
2013-03-14 15:25:00,37.9,8.4,29.81,WSW,253,12.8,12.8,29,0.00,CLR,,0.00,WeatherDisplay:10.37,2013-03-14 19:25:00,
2013-03-14 15:30:00,37.8,6.8,29.81,NNW,328,12.7,24.2,27,0.00,CLR,,0.00,WeatherDisplay:10.37,2013-03-14 19:30:00,
2013-03-14 15:35:00,37.6,8.9,29.80,North,352,5.9,18.4,30,0.00,CLR,,0.00,WeatherDisplay:10.37,2013-03-14 19:35:00,
2013-03-14 15:40:00,37.9,10.6,29.81,West,281,9.4,18.4,32,0.00,CLR,,0.00,WeatherDisplay:10.37,2013-03-14 19:40:00,
2013-03-14 15:45:00,38.0,8.5,29.80,West,281,7.6,16.1,29,0.00,CLR,,0.00,WeatherDisplay:10.37,2013-03-14 19:45:00,
2013-03-14 15:50:00,38.6,8.2,29.80,NW,326,11.6,20.7,28,0.00,CLR,,0.00,WeatherDisplay:10.37,2013-03-14 19:50:00,
2013-03-14 15:55:00,38.9,8.5,29.80,WSW,237,13.3,20.7,28,0.00,CLR,,0.00,WeatherDisplay:10.37,2013-03-14 19:55:00,
2013-03-14 16:00:00,38.2,9.4,29.80,West,261,7.9,19.6,30,0.00,CLR,,0.00,WeatherDisplay:10.37,2013-03-14 20:00:00,
2013-03-14 16:05:00,38.2,7.1,29.80,West,260,10.6,21.9,27,0.00,CLR,,0.00,WeatherDisplay:10.37,2013-03-14 20:05:00,
2013-03-14 16:10:00,38.2,7.9,29.80,NW,318,9.1,18.4,28,0.00,CLR,,0.00,WeatherDisplay:10.37,2013-03-14 20:10:00,
2013-03-14 16:15:00,38.0,6.9,29.80,NW,315,12.4,17.3,27,0.00,CLR,,0.00,WeatherDisplay:10.37,2013-03-14 20:15:00,
2013-03-14 16:20:00,37.9,6.8,29.80,WNW,295,4.8,19.6,27,0.00,CLR,,0.00,WeatherDisplay:10.37,2013-03-14 20:20:00,
2013-03-14 16:26:00,38.2,7.9,29.80,WNW,294,6.9,19.6,28,0.00,CLR,,0.00,WeatherDisplay:10.37,2013-03-14 20:26:00,
2013-03-14 16:32:00,38.2,7.1,29.80,NW,315,9.7,18.4,27,0.00,CLR,,0.00,WeatherDisplay:10.37,2013-03-14 20:32:00,
2013-03-14 16:37:00,38.0,6.9,29.80,NW,312,9.9,17.3,27,0.00,CLR,,0.00,WeatherDisplay:10.37,2013-03-14 20:37:00,
2013-03-14 16:42:00,37.8,8.3,29.81,WNW,299,7.6,20.7,29,0.00,CLR,,0.00,WeatherDisplay:10.37,2013-03-14 20:42:00,
2013-03-14 16:47:00,37.9,7.6,29.81,NNW,329,5.8,12.7,28,0.00,CLR,,0.00,WeatherDisplay:10.37,2013-03-14 20:47:00,
2013-03-14 16:52:00,37.9,6.8,29.81,NW,322,13.7,19.6,27,0.00,CLR,,0.00,WeatherDisplay:10.37,2013-03-14 20:52:00,
2013-03-14 16:57:00,37.9,7.6,29.81,NW,312,3.3,9.2,28,0.00,CLR,,0.00,WeatherDisplay:10.37,2013-03-14 20:57:00,
2013-03-14 17:02:00,38.0,8.5,29.80,WNW,289,12.1,14.0,29,0.00,CLR,,0.00,WeatherDisplay:10.37,2013-03-14 21:02:00,
2013-03-14 17:08:00,37.8,5.9,29.81,NNW,339,9.7,17.3,26,0.00,CLR,,0.00,WeatherDisplay:10.37,2013-03-14 21:08:00,
2013-03-14 17:13:00,38.0,6.1,29.81,NW,315,11.9,19.6,26,0.00,CLR,,0.00,WeatherDisplay:10.37,2013-03-14 21:13:00,
2013-03-14 17:18:00,37.9,7.6,29.81,North,354,5.4,13.8,28,0.00,CLR,,0.00,WeatherDisplay:10.37,2013-03-14 21:18:00,
2013-03-14 17:23:00,37.9,6.8,29.81,NW,315,5.9,12.7,27,0.00,CLR,,0.00,WeatherDisplay:10.37,2013-03-14 21:23:00,
2013-03-14 17:28:00,37.9,6.0,29.81,WNW,291,9.0,11.5,26,0.00,CLR,,0.00,WeatherDisplay:10.37,2013-03-14 21:28:00,
2013-03-14 17:34:00,38.3,8.0,29.82,West,275,2.0,8.0,28,0.00,CLR,,0.00,WeatherDisplay:10.37,2013-03-14 21:34:00,
2013-03-14 17:39:00,38.0,6.1,29.81,NW,308,10.8,16.1,26,0.00,CLR,,0.00,WeatherDisplay:10.37,2013-03-14 21:39:00,
2013-03-14 17:44:00,37.8,6.8,29.81,NW,313,4.6,8.1,27,0.00,CLR,,0.00,WeatherDisplay:10.37,2013-03-14 21:44:00,
2013-03-14 17:49:00,37.9,6.0,29.81,NW,305,8.0,19.6,26,0.00,CLR,,0.00,WeatherDisplay:10.37,2013-03-14 21:49:00,
2013-03-14 17:54:00,37.8,6.8,29.82,NW,325,7.3,11.5,27,0.00,CLR,,0.00,WeatherDisplay:10.37,2013-03-14 21:54:00,
2013-03-14 17:59:00,37.3,4.6,29.82,NW,308,12.2,27.6,25,0.00,CLR,,0.00,WeatherDisplay:10.37,2013-03-14 21:59:00,
2013-03-14 18:04:00,37.2,6.2,29.82,WNW,299,7.4,17.3,27,0.00,CLR,,0.00,WeatherDisplay:10.37,2013-03-14 22:04:00,
2013-03-14 18:09:00,37.0,5.2,29.82,North,354,10.5,18.4,26,0.00,CLR,,0.00,WeatherDisplay:10.37,2013-03-14 22:09:00,
2013-03-14 18:14:00,36.9,6.0,29.82,WNW,299,9.2,12.7,27,0.00,CLR,,0.00,WeatherDisplay:10.37,2013-03-14 22:14:00,
2013-03-14 18:20:00,36.8,5.9,29.82,West,281,6.6,12.7,27,0.00,CLR,,0.00,WeatherDisplay:10.37,2013-03-14 22:20:00,
2013-03-14 18:25:00,36.8,5.9,29.82,WSW,253,4.1,13.8,27,0.00,CLR,,0.00,WeatherDisplay:10.37,2013-03-14 22:25:00,
2013-03-14 18:30:00,36.6,6.5,29.82,NW,304,5.9,9.2,28,0.00,CLR,,0.00,WeatherDisplay:10.37,2013-03-14 22:30:00,
2013-03-14 18:35:00,36.5,5.6,29.83,WNW,302,5.6,12.0,27,0.00,CLR,,0.00,WeatherDisplay:10.37,2013-03-14 22:35:00,
2013-03-14 18:40:00,36.3,5.5,29.83,NW,316,3.9,6.9,27,0.00,CLR,,0.00,WeatherDisplay:10.37,2013-03-14 22:40:00,
2013-03-14 18:45:00,35.9,4.3,29.83,North,0,11.4,17.3,26,0.00,CLR,,0.00,WeatherDisplay:10.37,2013-03-14 22:45:00,
2013-03-14 18:50:00,35.8,5.0,29.83,NW,315,7.5,12.7,27,0.00,CLR,,0.00,WeatherDisplay:10.37,2013-03-14 22:50:00,
2013-03-14 18:56:00,35.5,5.6,29.84,NNW,347,14.1,19.6,28,0.00,CLR,,0.00,WeatherDisplay:10.37,2013-03-14 22:56:00,
2013-03-14 19:01:00,35.5,4.8,29.84,WNW,299,7.5,11.5,27,0.00,CLR,,0.00,WeatherDisplay:10.37,2013-03-14 23:01:00,
2013-03-14 19:07:00,35.6,5.6,29.84,NW,312,8.3,12.7,28,0.00,CLR,,0.00,WeatherDisplay:10.37,2013-03-14 23:07:00,
2013-03-14 19:12:00,35.2,5.3,29.85,NW,318,7.5,13.8,28,0.00,CLR,,0.00,WeatherDisplay:10.37,2013-03-14 23:12:00,
2013-03-14 19:17:00,34.9,5.0,29.85,WNW,282,11.1,24.2,28,0.00,CLR,,0.00,WeatherDisplay:10.37,2013-03-14 23:17:00,
2013-03-14 19:22:00,34.9,4.2,29.85,WNW,292,8.9,17.3,27,0.00,CLR,,0.00,WeatherDisplay:10.37,2013-03-14 23:22:00,
2013-03-14 19:27:00,34.7,4.9,29.85,NNW,328,8.8,16.1,28,0.00,CLR,,0.00,WeatherDisplay:10.37,2013-03-14 23:27:00,
2013-03-14 19:32:00,34.6,4.8,29.85,West,280,7.4,11.5,28,0.00,CLR,,0.00,WeatherDisplay:10.37,2013-03-14 23:32:00,
2013-03-14 19:37:00,34.4,5.4,29.86,NNW,339,10.4,20.0,29,0.00,CLR,,0.00,WeatherDisplay:10.37,2013-03-14 23:37:00,
2013-03-14 19:42:00,34.4,4.6,29.86,NW,311,11.1,19.6,28,0.00,CLR,,0.00,WeatherDisplay:10.37,2013-03-14 23:42:00,
2013-03-14 19:48:00,34.4,4.6,29.86,NNW,330,9.2,13.8,28,0.00,CLR,,0.00,WeatherDisplay:10.37,2013-03-14 23:48:00,
2013-03-14 19:53:00,34.3,6.0,29.86,WNW,296,5.2,6.9,30,0.00,CLR,,0.00,WeatherDisplay:10.37,2013-03-14 23:53:00,
2013-03-14 19:58:00,34.0,6.5,29.86,WNW,292,8.2,13.8,31,0.00,CLR,,0.00,WeatherDisplay:10.37,2013-03-14 23:58:00,
2013-03-14 20:03:00,33.8,5.6,29.86,NW,305,7.4,11.5,30,0.00,CLR,,0.00,WeatherDisplay:10.37,2013-03-15 00:03:00,
2013-03-14 20:08:00,33.8,4.8,29.86,WNW,288,9.0,19.6,29,0.00,CLR,,0.00,WeatherDisplay:10.37,2013-03-15 00:08:00,
2013-03-14 20:13:00,33.7,4.0,29.86,North,353,12.4,17.3,28,0.00,CLR,,0.00,WeatherDisplay:10.37,2013-03-15 00:13:00,
2013-03-14 20:19:00,33.7,4.0,29.87,NW,308,7.3,12.7,28,0.00,CLR,,0.00,WeatherDisplay:10.37,2013-03-15 00:19:00,
2013-03-14 20:24:00,33.5,4.6,29.87,NW,322,9.4,10.4,29,0.00,CLR,,0.00,WeatherDisplay:10.37,2013-03-15 00:24:00,
2013-03-14 20:29:00,33.4,6.0,29.87,NNW,333,1.2,8.1,31,0.00,CLR,,0.00,WeatherDisplay:10.37,2013-03-15 00:29:00,
2013-03-14 20:34:00,33.1,5.7,29.87,North,0,6.0,11.5,31,0.00,CLR,,0.00,WeatherDisplay:10.37,2013-03-15 00:34:00,
2013-03-14 20:39:00,32.9,5.5,29.87,NW,315,3.6,5.8,31,0.00,CLR,,0.00,WeatherDisplay:10.37,2013-03-15 00:39:00,
2013-03-14 20:44:00,32.8,5.4,29.87,West,281,0.1,10.0,31,0.00,CLR,,0.00,WeatherDisplay:10.37,2013-03-15 00:44:00,
2013-03-14 20:50:00,32.8,5.4,29.88,WNW,301,5.2,6.0,31,0.00,CLR,,0.00,WeatherDisplay:10.37,2013-03-15 00:50:00,
2013-03-14 20:55:00,32.8,5.4,29.88,NW,323,0.3,3.5,31,0.00,CLR,,0.00,WeatherDisplay:10.37,2013-03-15 00:55:00,
2013-03-14 21:00:00,32.7,7.4,29.88,NNW,328,0.0,0.0,34,0.00,CLR,,0.00,WeatherDisplay:10.37,2013-03-15 01:00:00,
2013-03-14 21:05:00,32.5,5.2,29.88,NW,306,5.0,11.5,31,0.00,CLR,,0.00,WeatherDisplay:10.37,2013-03-15 01:05:00,
2013-03-14 21:10:00,32.5,5.2,29.87,NNW,344,8.5,15.0,31,0.00,CLR,,0.00,WeatherDisplay:10.37,2013-03-15 01:10:00,
2013-03-14 21:15:00,32.4,6.4,29.88,NNW,333,1.9,4.6,33,0.00,CLR,,0.00,WeatherDisplay:10.37,2013-03-15 01:15:00,
2013-03-14 21:21:00,32.2,6.3,29.88,NW,325,1.3,13.8,33,0.00,CLR,,0.00,WeatherDisplay:10.37,2013-03-15 01:21:00,
2013-03-14 21:26:00,32.2,6.3,29.88,NW,322,7.5,10.4,33,0.00,CLR,,0.00,WeatherDisplay:10.37,2013-03-15 01:26:00,
2013-03-14 21:31:00,32.2,5.6,29.88,NNW,330,10.9,26.5,32,0.00,CLR,,0.00,WeatherDisplay:10.37,2013-03-15 01:31:00,
2013-03-14 21:36:00,32.1,6.8,29.88,NW,308,3.1,8.1,34,0.00,CLR,,0.00,WeatherDisplay:10.37,2013-03-15 01:36:00,
2013-03-14 21:42:00,32.1,6.2,29.89,WSW,254,6.1,16.1,33,0.00,CLR,,0.00,WeatherDisplay:10.37,2013-03-15 01:42:00,
2013-03-14 21:47:00,32.1,7.5,29.89,West,272,3.6,11.5,35,0.00,CLR,,0.00,WeatherDisplay:10.37,2013-03-15 01:47:00,
2013-03-14 21:52:00,31.9,6.0,29.89,NW,318,4.3,10.4,33,0.00,CLR,,0.00,WeatherDisplay:10.37,2013-03-15 01:52:00,
2013-03-14 21:57:00,31.8,6.6,29.89,NW,305,7.2,11.5,34,0.00,CLR,,0.00,WeatherDisplay:10.37,2013-03-15 01:57:00,
2013-03-14 22:02:00,31.8,7.2,29.89,NW,311,4.9,9.2,35,0.00,CLR,,0.00,WeatherDisplay:10.37,2013-03-15 02:02:00,
2013-03-14 22:07:00,31.6,7.0,29.89,North,357,6.5,6.9,35,0.00,CLR,,0.00,WeatherDisplay:10.37,2013-03-15 02:07:00,
2013-03-14 22:13:00,31.5,6.3,29.89,NNW,332,10.4,17.3,34,0.00,CLR,,0.00,WeatherDisplay:10.37,2013-03-15 02:13:00,
2013-03-14 22:18:00,31.6,6.4,29.89,West,271,6.7,11.5,34,0.00,CLR,,0.00,WeatherDisplay:10.37,2013-03-15 02:18:00,
2013-03-14 22:23:00,31.5,6.9,29.89,NNW,342,10.7,13.8,35,0.00,CLR,,0.00,WeatherDisplay:10.37,2013-03-15 02:23:00,
2013-03-14 22:28:00,31.5,7.6,29.90,North,0,6.7,12.7,36,0.00,CLR,,0.00,WeatherDisplay:10.37,2013-03-15 02:28:00,
2013-03-14 22:33:00,31.3,7.4,29.90,NW,306,3.8,11.5,36,0.00,CLR,,0.00,WeatherDisplay:10.37,2013-03-15 02:33:00,
2013-03-14 22:38:00,31.2,7.3,29.90,WSW,250,3.4,11.5,36,0.00,CLR,,0.00,WeatherDisplay:10.37,2013-03-15 02:38:00,
2013-03-14 22:43:00,31.0,7.1,29.90,NW,315,4.7,11.5,36,0.00,CLR,,0.00,WeatherDisplay:10.37,2013-03-15 02:43:00,
2013-03-14 22:48:00,31.0,8.3,29.90,NW,313,0.0,0.0,38,0.00,CLR,,0.00,WeatherDisplay:10.37,2013-03-15 02:48:00,
2013-03-14 22:53:00,31.0,7.7,29.90,NNW,347,6.0,11.5,37,0.00,CLR,,0.00,WeatherDisplay:10.37,2013-03-15 02:53:00,
2013-03-14 22:58:00,30.9,8.2,29.91,NW,316,1.3,5.8,38,0.00,CLR,,0.00,WeatherDisplay:10.37,2013-03-15 02:58:00,
2013-03-14 23:04:00,30.7,8.6,29.90,NW,318,3.1,6.9,39,0.00,CLR,,0.00,WeatherDisplay:10.37,2013-03-15 03:04:00,
2013-03-14 23:09:00,30.7,8.6,29.91,West,271,2.4,11.5,39,0.00,CLR,,0.00,WeatherDisplay:10.37,2013-03-15 03:09:00,
2013-03-14 23:14:00,30.7,8.6,29.91,WSW,250,0.0,0.0,39,0.00,CLR,,0.00,WeatherDisplay:10.37,2013-03-15 03:14:00,
2013-03-14 23:19:00,30.6,9.1,29.91,NW,320,0.1,1.0,40,0.00,CLR,,0.00,WeatherDisplay:10.37,2013-03-15 03:19:00,
2013-03-14 23:24:00,30.3,9.9,29.91,WNW,299,0.4,3.5,42,0.00,CLR,,0.00,WeatherDisplay:10.37,2013-03-15 03:24:00,
2013-03-14 23:29:00,30.3,9.4,29.92,NNW,346,1.9,11.5,41,0.00,CLR,,0.00,WeatherDisplay:10.37,2013-03-15 03:29:00,
2013-03-14 23:34:00,30.3,10.4,29.92,NW,322,2.0,8.1,43,0.00,CLR,,0.00,WeatherDisplay:10.37,2013-03-15 03:34:00,
2013-03-14 23:40:00,30.1,9.7,29.92,NW,316,3.8,11.5,42,0.00,CLR,,0.00,WeatherDisplay:10.37,2013-03-15 03:40:00,
2013-03-14 23:45:00,30.1,10.3,29.92,NNW,347,0.0,0.0,43,0.00,CLR,,0.00,WeatherDisplay:10.37,2013-03-15 03:45:00,
2013-03-14 23:50:00,30.0,9.6,29.92,WSW,244,0.0,0.0,42,0.00,CLR,,0.00,WeatherDisplay:10.37,2013-03-15 03:50:00,
2013-03-14 23:55:00,30.0,9.6,29.92,NW,312,5.4,6.9,42,0.00,CLR,,0.00,WeatherDisplay:10.37,2013-03-15 03:55:00,